createdAt,value
2023-04-10T00:01:35.788Z,45.70
2023-04-10T00:04:06.127Z,45.40
2023-04-10T00:06:34.198Z,47.60
2023-04-10T00:09:01.991Z,48.53
2023-04-10T00:11:30.961Z,47.77
2023-04-10T00:13:58.732Z,46.00
2023-04-10T00:16:28.535Z,45.43
2023-04-10T00:18:56.577Z,51.67
2023-04-10T00:21:26.313Z,40.97
2023-04-10T00:23:54.689Z,62.20
2023-04-10T00:26:23.941Z,45.40
2023-04-10T00:28:51.754Z,49.00
2023-04-10T00:31:19.408Z,45.93
2023-04-10T00:33:48.022Z,47.10
2023-04-10T00:36:15.978Z,46.60
2023-04-10T00:38:45.524Z,55.50
2023-04-10T00:41:13.445Z,49.93
2023-04-10T00:43:41.142Z,61.30
2023-04-10T00:46:09.164Z,51.87
2023-04-10T00:48:37.840Z,48.70
2023-04-10T00:51:05.967Z,47.43
2023-04-10T00:53:33.929Z,48.50
2023-04-10T00:56:03.469Z,52.27
2023-04-10T00:58:31.451Z,49.80
2023-04-10T01:00:59.450Z,44.47
2023-04-10T01:03:28.015Z,52.80
2023-04-10T01:06:00.232Z,50.53
2023-04-10T01:08:32.649Z,45.07
2023-04-10T01:11:02.795Z,45.37
2023-04-10T01:13:35.852Z,47.47
2023-04-10T01:16:07.136Z,46.67
2023-04-10T01:18:42.751Z,47.90
2023-04-10T01:21:12.199Z,43.03
2023-04-10T01:23:47.368Z,48.83
2023-04-10T01:26:17.348Z,62.63
2023-04-10T01:29:00.137Z,41.67
2023-04-10T01:31:30.787Z,46.80
2023-04-10T01:34:02.685Z,41.93
2023-04-10T01:36:32.877Z,39.67
2023-04-10T01:39:01.198Z,45.87
2023-04-10T01:41:29.908Z,41.87
2023-04-10T01:43:59.989Z,41.60
2023-04-10T01:46:30.046Z,41.43
2023-04-10T01:48:59.964Z,51.07
2023-04-10T01:51:28.722Z,43.90
2023-04-10T01:53:57.118Z,44.20
2023-04-10T01:56:28.912Z,58.07
2023-04-10T01:58:57.740Z,46.60
2023-04-10T02:01:30.216Z,44.20
2023-04-10T02:03:59.488Z,43.33
2023-04-10T02:06:31.277Z,51.00
2023-04-10T02:09:04.104Z,41.87
2023-04-10T02:11:35.326Z,53.13
2023-04-10T02:14:05.187Z,45.90
2023-04-10T02:16:34.782Z,42.77
2023-04-10T02:19:03.207Z,45.80
2023-04-10T02:21:31.470Z,46.80
2023-04-10T02:23:59.561Z,45.90
2023-04-10T02:26:27.566Z,46.23
2023-04-10T02:28:55.999Z,46.30
2023-04-10T02:31:25.302Z,54.23
2023-04-10T02:33:54.905Z,52.40
2023-04-10T02:36:23.190Z,46.87
2023-04-10T02:38:51.142Z,51.50
2023-04-10T02:41:18.888Z,51.70
2023-04-10T02:43:46.889Z,54.60
2023-04-10T02:46:15.070Z,54.37
2023-04-10T02:48:43.161Z,52.70
2023-04-10T02:51:14.707Z,54.70
2023-04-10T02:53:42.472Z,51.60
2023-04-10T02:56:11.857Z,52.83
2023-04-10T02:58:45.518Z,52.93
2023-04-10T03:01:14.812Z,53.07
2023-04-10T03:03:45.482Z,53.97
2023-04-10T03:06:16.597Z,55.73
2023-04-10T03:08:47.025Z,54.70
2023-04-10T03:11:14.855Z,52.30
2023-04-10T03:13:42.616Z,50.17
2023-04-10T03:16:10.807Z,54.53
2023-04-10T03:18:38.806Z,54.83
2023-04-10T03:21:06.963Z,55.23
2023-04-10T03:23:36.878Z,58.07
2023-04-10T03:26:05.611Z,60.23
2023-04-10T03:28:38.063Z,59.37
2023-04-10T03:31:07.227Z,74.80
2023-04-10T03:33:37.053Z,73.17
2023-04-10T03:36:05.163Z,66.03
2023-04-10T03:38:34.303Z,77.17
2023-04-10T03:41:03.670Z,65.47
2023-04-10T03:43:34.341Z,64.70
2023-04-10T03:46:04.511Z,59.40
2023-04-10T03:48:33.404Z,64.70
2023-04-10T03:51:01.417Z,61.43
2023-04-10T03:53:29.338Z,57.67
2023-04-10T03:55:57.111Z,63.70
2023-04-10T03:58:27.517Z,63.67
2023-04-10T04:00:57.384Z,63.03
2023-04-10T04:03:38.780Z,61.93
2023-04-10T04:06:27.397Z,64.27
2023-04-10T04:09:18.090Z,67.80
2023-04-10T04:12:18.573Z,63.47
2023-04-10T04:14:47.865Z,69.20
2023-04-10T04:17:34.252Z,63.73
2023-04-10T04:20:05.924Z,61.13
2023-04-10T04:22:42.753Z,65.23
2023-04-10T04:25:19.817Z,61.67
2023-04-10T04:28:06.409Z,64.30
2023-04-10T04:30:52.018Z,71.53
2023-04-10T04:33:47.342Z,67.40
2023-04-10T04:36:38.442Z,68.40
2023-04-10T04:39:26.600Z,75.50
2023-04-10T04:42:04.552Z,78.70
2023-04-10T04:44:35.319Z,76.63
2023-04-10T04:47:13.120Z,73.57
2023-04-10T04:50:07.883Z,77.57
2023-04-10T04:53:02.303Z,77.40
2023-04-10T04:55:42.617Z,82.30
2023-04-10T04:58:22.060Z,71.13
2023-04-10T05:01:08.905Z,72.30
2023-04-10T05:03:56.732Z,65.50
2023-04-10T05:06:54.544Z,67.67
2023-04-10T05:09:41.546Z,62.20
2023-04-10T05:12:35.142Z,60.10
2023-04-10T05:15:38.448Z,64.40
2023-04-10T05:18:36.853Z,72.40
2023-04-10T05:21:32.925Z,78.70
2023-04-10T05:24:23.090Z,65.47
2023-04-10T05:27:12.687Z,74.67
2023-04-10T05:29:59.137Z,70.00
2023-04-10T05:32:41.263Z,70.43
2023-04-10T05:35:22.870Z,64.23
2023-04-10T05:38:15.579Z,66.43
2023-04-10T05:40:50.736Z,64.23
2023-04-10T05:43:36.912Z,62.43
2023-04-10T05:46:24.962Z,56.80
2023-04-10T05:48:55.853Z,52.50
2023-04-10T05:51:36.198Z,51.07
2023-04-10T05:54:34.699Z,52.70
2023-04-10T05:57:22.299Z,52.40
2023-04-10T06:00:08.072Z,52.63
2023-04-10T06:02:41.943Z,45.37
2023-04-10T06:05:17.762Z,46.13
2023-04-10T06:07:46.453Z,46.17
2023-04-10T06:10:17.100Z,43.57
2023-04-10T06:12:45.586Z,44.27
2023-04-10T06:15:14.688Z,44.77
2023-04-10T06:17:43.848Z,46.50
2023-04-10T06:20:12.064Z,41.50
2023-04-10T06:22:40.045Z,35.63
2023-04-10T06:25:08.795Z,39.80
2023-04-10T06:27:38.266Z,42.70
2023-04-10T06:30:10.888Z,39.60
2023-04-10T06:32:38.736Z,38.23
2023-04-10T06:35:07.421Z,37.23
2023-04-10T06:37:35.232Z,35.33
2023-04-10T06:40:06.040Z,39.13
2023-04-10T06:42:34.302Z,43.70
2023-04-10T06:45:10.602Z,38.70
2023-04-10T06:47:40.333Z,37.17
2023-04-10T06:50:08.224Z,41.33
2023-04-10T06:52:37.190Z,38.47
2023-04-10T06:55:05.303Z,40.10
2023-04-10T06:57:33.008Z,46.03
2023-04-10T07:00:00.705Z,52.03
2023-04-10T07:02:30.335Z,51.10
2023-04-10T07:04:58.555Z,53.47
2023-04-10T07:07:26.553Z,49.43
2023-04-10T07:09:54.242Z,54.13
2023-04-10T07:12:22.810Z,53.73
2023-04-10T07:14:50.526Z,49.90
2023-04-10T07:17:18.785Z,53.70
2023-04-10T07:19:47.837Z,52.73
2023-04-10T07:22:15.775Z,49.90
2023-04-10T07:24:44.259Z,51.57
2023-04-10T07:27:12.846Z,50.40
2023-04-10T07:29:40.698Z,50.13
2023-04-10T07:32:08.801Z,53.30
2023-04-10T07:34:36.615Z,49.67
2023-04-10T07:37:05.757Z,53.40
2023-04-10T07:39:33.540Z,49.27
2023-04-10T07:42:01.274Z,53.53
2023-04-10T07:44:29.645Z,57.10
2023-04-10T07:46:57.678Z,51.37
2023-04-10T07:49:25.449Z,52.67
2023-04-10T07:51:53.327Z,53.70
2023-04-10T07:54:22.569Z,52.97
2023-04-10T07:56:52.680Z,51.87
2023-04-10T07:59:20.802Z,51.30
2023-04-10T08:01:48.899Z,50.07
2023-04-10T08:04:17.073Z,53.80
2023-04-10T08:06:45.066Z,47.17
2023-04-10T08:09:13.136Z,47.40
2023-04-10T08:11:42.761Z,46.83
2023-04-10T08:14:10.546Z,45.13
2023-04-10T08:16:38.728Z,48.13
2023-04-10T08:19:06.520Z,47.17
2023-04-10T08:21:34.316Z,56.80
2023-04-10T08:24:03.264Z,51.10
2023-04-10T08:26:31.228Z,49.07
2023-04-10T08:29:01.226Z,52.97
2023-04-10T08:31:29.970Z,49.73
2023-04-10T08:33:58.869Z,48.20
2023-04-10T08:36:27.603Z,48.00
2023-04-10T08:38:55.262Z,47.07
2023-04-10T08:41:22.968Z,46.13
2023-04-10T08:43:51.589Z,44.73
2023-04-10T08:46:21.148Z,41.40
2023-04-10T08:48:49.562Z,39.20
2023-04-10T08:51:20.472Z,46.63
2023-04-10T08:53:59.586Z,44.77
2023-04-10T08:56:27.880Z,36.77
2023-04-10T08:58:55.534Z,37.87
2023-04-10T09:01:26.109Z,37.27
2023-04-10T09:03:54.328Z,35.83
2023-04-10T09:06:22.651Z,38.03
2023-04-10T09:08:50.903Z,40.53
2023-04-10T09:11:18.924Z,34.23
2023-04-10T09:13:47.010Z,40.37
2023-04-10T09:16:15.666Z,36.40
2023-04-10T09:18:47.717Z,36.70
2023-04-10T09:21:17.433Z,36.40
2023-04-10T09:23:47.674Z,39.83
2023-04-10T09:26:29.363Z,34.80
2023-04-10T09:29:20.084Z,36.17
2023-04-10T09:31:47.882Z,37.57
2023-04-10T09:34:18.285Z,34.27
2023-04-10T09:36:54.343Z,32.87
2023-04-10T09:39:22.437Z,37.40
2023-04-10T09:41:51.421Z,33.27
2023-04-10T09:44:20.622Z,36.37
2023-04-10T09:46:49.607Z,37.27
2023-04-10T09:49:18.852Z,36.40
2023-04-10T09:51:47.377Z,32.60
2023-04-10T09:54:15.249Z,36.37
2023-04-10T09:56:46.335Z,32.87
2023-04-10T09:59:14.825Z,32.13
2023-04-10T10:01:42.719Z,36.97
2023-04-10T10:04:11.199Z,33.03
2023-04-10T10:06:40.556Z,52.70
2023-04-10T10:09:08.502Z,38.37
2023-04-10T10:11:36.692Z,34.37
2023-04-10T10:14:07.777Z,48.27
2023-04-10T10:16:38.009Z,39.47
2023-04-10T10:19:10.510Z,36.90
2023-04-10T10:21:39.158Z,42.60
2023-04-10T10:24:10.364Z,32.90
2023-04-10T10:26:40.192Z,31.20
2023-04-10T10:29:12.158Z,29.00
2023-04-10T10:31:41.004Z,31.60
2023-04-10T10:34:10.089Z,28.40
2023-04-10T10:36:38.779Z,31.70
2023-04-10T10:39:14.497Z,31.80
2023-04-10T10:41:46.010Z,33.40
2023-04-10T10:44:15.733Z,24.57
2023-04-10T10:46:45.617Z,26.43
2023-04-10T10:49:13.377Z,27.30
2023-04-10T10:51:44.621Z,24.33
2023-04-10T10:54:31.475Z,25.90
2023-04-10T10:57:00.848Z,25.20
2023-04-10T10:59:46.915Z,23.30
2023-04-10T11:02:16.013Z,25.60
2023-04-10T11:04:44.786Z,27.20
2023-04-10T11:07:13.288Z,24.30
2023-04-10T11:09:48.565Z,22.80
2023-04-10T11:12:18.367Z,21.97
2023-04-10T11:14:46.370Z,23.90
2023-04-10T11:17:14.023Z,22.73
2023-04-10T11:20:01.578Z,23.80
2023-04-10T11:22:29.296Z,25.37
2023-04-10T11:25:00.682Z,27.37
2023-04-10T11:27:52.936Z,39.80
2023-04-10T11:30:27.922Z,22.03
2023-04-10T11:32:56.429Z,22.97
2023-04-10T11:35:24.916Z,26.93
2023-04-10T11:37:52.987Z,24.20
2023-04-10T11:40:21.148Z,24.17
2023-04-10T11:42:50.286Z,26.40
2023-04-10T11:45:27.395Z,24.87
2023-04-10T11:47:55.550Z,26.07
2023-04-10T11:50:23.266Z,26.57
2023-04-10T11:52:52.982Z,31.80
2023-04-10T11:55:37.695Z,24.13
2023-04-10T11:58:22.280Z,23.70
2023-04-10T12:00:57.329Z,22.67
2023-04-10T12:03:42.031Z,27.53
2023-04-10T12:06:11.790Z,26.27
2023-04-10T12:08:40.742Z,26.33
2023-04-10T12:11:09.762Z,23.67
2023-04-10T12:13:39.230Z,25.30
2023-04-10T12:16:08.759Z,19.17
2023-04-10T12:18:37.497Z,19.63
2023-04-10T12:21:06.773Z,19.30
2023-04-10T12:23:37.963Z,17.70
2023-04-10T12:26:10.605Z,20.17
2023-04-10T12:28:40.798Z,18.13
2023-04-10T12:31:08.908Z,16.10
2023-04-10T12:33:37.112Z,15.13
2023-04-10T12:36:05.234Z,20.50
2023-04-10T12:38:37.060Z,16.63
2023-04-10T12:41:06.181Z,17.40
2023-04-10T12:43:34.667Z,20.20
2023-04-10T12:46:04.318Z,21.77
2023-04-10T12:48:32.745Z,27.60
2023-04-10T12:51:00.611Z,19.97
2023-04-10T12:53:28.941Z,22.03
2023-04-10T12:56:03.771Z,19.93
2023-04-10T12:58:32.331Z,19.20
2023-04-10T13:01:01.660Z,18.37
2023-04-10T13:03:31.904Z,19.20
2023-04-10T13:06:00.058Z,21.53
2023-04-10T13:08:27.704Z,19.57
2023-04-10T13:11:17.774Z,22.03
2023-04-10T13:13:46.208Z,18.13
2023-04-10T13:16:13.977Z,18.60
2023-04-10T13:18:43.697Z,20.70
2023-04-10T13:21:11.349Z,19.10
2023-04-10T13:23:39.338Z,20.97
2023-04-10T13:26:07.317Z,20.13
2023-04-10T13:28:35.121Z,21.57
2023-04-10T13:31:02.888Z,26.80
2023-04-10T13:33:31.844Z,20.17
2023-04-10T13:36:01.444Z,19.50
2023-04-10T13:38:29.473Z,23.20
2023-04-10T13:40:57.155Z,19.77
2023-04-10T13:43:24.925Z,18.27
2023-04-10T13:45:52.880Z,18.87
2023-04-10T13:48:24.547Z,20.83
2023-04-10T13:50:57.544Z,19.80
2023-04-10T13:53:26.727Z,22.00
2023-04-10T13:55:54.535Z,17.77
2023-04-10T13:58:22.174Z,19.20
2023-04-10T14:00:50.217Z,20.60
2023-04-10T14:03:18.088Z,21.00
2023-04-10T14:05:45.875Z,21.30
2023-04-10T14:08:16.254Z,17.50
2023-04-10T14:10:46.109Z,17.20
2023-04-10T14:13:14.065Z,17.40
2023-04-10T14:15:42.037Z,18.37
2023-04-10T14:18:09.756Z,17.67
2023-04-10T14:20:37.425Z,20.00
2023-04-10T14:23:05.356Z,17.83
2023-04-10T14:25:32.975Z,16.60
2023-04-10T14:28:02.192Z,17.90
2023-04-10T14:30:31.135Z,18.60
2023-04-10T14:32:58.909Z,19.90
2023-04-10T14:35:26.897Z,17.70
2023-04-10T14:37:55.702Z,20.00
2023-04-10T14:40:23.334Z,18.57
2023-04-10T14:42:53.010Z,19.80
2023-04-10T14:45:23.544Z,21.10
2023-04-10T14:47:51.270Z,22.13
2023-04-10T14:50:18.945Z,25.40
2023-04-10T14:52:46.865Z,21.57
2023-04-10T14:55:14.776Z,24.10
2023-04-10T14:57:42.580Z,19.67
2023-04-10T15:00:11.483Z,20.70
2023-04-10T15:02:40.695Z,24.10
2023-04-10T15:05:08.586Z,20.30
2023-04-10T15:07:36.721Z,21.33
2023-04-10T15:10:04.880Z,22.73
2023-04-10T15:12:33.042Z,21.47
2023-04-10T15:15:00.887Z,24.57
2023-04-10T15:17:29.848Z,21.87
2023-04-10T15:19:58.918Z,20.90
2023-04-10T15:22:27.000Z,21.13
2023-04-10T15:24:54.879Z,23.23
2023-04-10T15:27:22.747Z,21.10
2023-04-10T15:29:50.840Z,21.17
2023-04-10T15:32:18.542Z,19.60
2023-04-10T15:34:46.289Z,19.70
2023-04-10T15:37:17.475Z,23.83
2023-04-10T15:39:45.224Z,22.90
2023-04-10T15:42:13.209Z,20.63
2023-04-10T15:44:41.050Z,21.00
2023-04-10T15:47:08.725Z,20.37
2023-04-10T15:49:38.504Z,20.57
2023-04-10T15:52:07.002Z,20.23
2023-04-10T15:54:36.085Z,19.47
2023-04-10T15:57:04.231Z,19.67
2023-04-10T15:59:33.719Z,19.63
2023-04-10T16:02:01.758Z,19.40
2023-04-10T16:04:29.923Z,21.80
2023-04-10T16:06:58.268Z,20.00
2023-04-10T16:09:26.705Z,20.87
2023-04-10T16:11:57.781Z,19.73
2023-04-10T16:14:25.703Z,20.00
2023-04-10T16:16:53.822Z,18.40
2023-04-10T16:19:22.025Z,20.80
2023-04-10T16:21:51.111Z,21.67
2023-04-10T16:24:18.780Z,19.00
2023-04-10T16:26:46.524Z,21.13
2023-04-10T16:29:19.868Z,19.30
2023-04-10T16:31:48.011Z,20.13
2023-04-10T16:34:15.963Z,22.90
2023-04-10T16:36:44.412Z,21.80
2023-04-10T16:39:12.191Z,23.20
2023-04-10T16:41:40.296Z,22.37
2023-04-10T16:44:08.299Z,23.70
2023-04-10T16:46:37.391Z,24.07
2023-04-10T16:49:05.300Z,29.93
2023-04-10T16:51:33.558Z,23.83
2023-04-10T16:54:01.371Z,27.10
2023-04-10T16:56:29.033Z,22.67
2023-04-10T16:58:57.594Z,25.47
2023-04-10T17:01:26.008Z,21.40
2023-04-10T17:03:55.366Z,20.53
2023-04-10T17:06:24.640Z,21.33
2023-04-10T17:08:52.345Z,19.23
2023-04-10T17:11:20.313Z,21.80
2023-04-10T17:13:48.505Z,29.50
2023-04-10T17:16:16.342Z,28.73
2023-04-10T17:18:44.278Z,27.10
2023-04-10T17:21:13.810Z,23.90
2023-04-10T17:23:41.688Z,26.07
2023-04-10T17:26:13.977Z,22.37
2023-04-10T17:28:44.330Z,22.00
2023-04-10T17:31:12.594Z,21.03
2023-04-10T17:33:42.098Z,21.77
2023-04-10T17:36:11.919Z,20.70
2023-04-10T17:38:41.816Z,23.13
2023-04-10T17:41:10.502Z,21.37
2023-04-10T17:43:38.349Z,21.17
2023-04-10T17:46:06.301Z,19.63
2023-04-10T17:48:34.620Z,21.03
2023-04-10T17:51:05.485Z,20.50
2023-04-10T17:53:33.220Z,20.53
2023-04-10T17:56:02.277Z,23.00
2023-04-10T17:58:30.718Z,28.57
2023-04-10T18:00:58.674Z,28.53
2023-04-10T18:03:27.274Z,26.10
2023-04-10T18:05:54.986Z,25.23
2023-04-10T18:08:22.937Z,24.73
2023-04-10T18:10:51.436Z,24.47
2023-04-10T18:13:20.618Z,23.33
2023-04-10T18:15:48.645Z,22.27
2023-04-10T18:18:16.390Z,25.00
2023-04-10T18:20:43.995Z,24.53
2023-04-10T18:23:11.926Z,27.47
2023-04-10T18:25:39.573Z,24.30
2023-04-10T18:28:13.743Z,23.20
2023-04-10T18:30:44.868Z,22.53
2023-04-10T18:33:13.912Z,26.80
2023-04-10T18:35:42.159Z,29.70
2023-04-10T18:38:09.941Z,27.90
2023-04-10T18:40:38.103Z,30.80
2023-04-10T18:43:05.926Z,24.20
2023-04-10T18:45:34.253Z,27.30
2023-04-10T18:48:03.606Z,23.43
2023-04-10T18:50:34.791Z,22.73
2023-04-10T18:53:02.792Z,21.87
2023-04-10T18:55:30.951Z,19.00
2023-04-10T18:57:58.800Z,21.03
2023-04-10T19:00:26.517Z,34.47
2023-04-10T19:02:54.479Z,24.97
2023-04-10T19:05:23.766Z,19.00
2023-04-10T19:08:02.925Z,19.60
2023-04-10T19:10:32.770Z,22.53
2023-04-10T19:13:00.793Z,23.03
2023-04-10T19:15:28.761Z,18.80
2023-04-10T19:17:56.731Z,22.67
2023-04-10T19:20:50.518Z,23.07
2023-04-10T19:23:13.895Z,20.70
2023-04-10T19:25:42.507Z,18.20
2023-04-10T19:28:10.548Z,18.97
2023-04-10T19:30:38.355Z,22.30
2023-04-10T19:33:06.102Z,16.77
2023-04-10T19:35:35.178Z,18.63
2023-04-10T19:38:03.129Z,20.97
2023-04-10T19:40:30.820Z,21.07
2023-04-10T19:43:00.355Z,19.53
2023-04-10T19:45:29.500Z,20.53
2023-04-10T19:47:57.911Z,18.90
2023-04-10T19:50:25.578Z,21.43
2023-04-10T19:52:54.991Z,17.87
2023-04-10T19:55:23.051Z,19.10
2023-04-10T19:57:51.021Z,17.90
2023-04-10T20:00:19.340Z,20.03
2023-04-10T20:02:47.294Z,19.20
2023-04-10T20:05:15.173Z,17.80
2023-04-10T20:07:43.148Z,18.70
2023-04-10T20:10:12.341Z,17.63
2023-04-10T20:12:40.443Z,17.60
2023-04-10T20:15:09.438Z,19.07
2023-04-10T20:17:38.471Z,19.20
2023-04-10T20:20:06.772Z,20.73
2023-04-10T20:22:34.804Z,18.87
2023-04-10T20:25:02.546Z,18.37
2023-04-10T20:27:31.697Z,15.80
2023-04-10T20:30:00.006Z,20.23
2023-04-10T20:32:27.685Z,17.40
2023-04-10T20:34:55.622Z,20.40
2023-04-10T20:37:23.637Z,17.33
2023-04-10T20:39:51.512Z,22.80
2023-04-10T20:42:19.241Z,16.73
2023-04-10T20:44:48.265Z,18.10
2023-04-10T20:47:16.132Z,22.10
2023-04-10T20:49:44.143Z,18.93
2023-04-10T20:52:12.054Z,17.00
2023-04-10T20:54:39.945Z,17.13
2023-04-10T20:57:07.582Z,15.70
2023-04-10T20:59:36.835Z,15.80
2023-04-10T21:02:06.204Z,18.33
2023-04-10T21:04:33.993Z,18.57
2023-04-10T21:07:01.704Z,18.60
2023-04-10T21:09:29.499Z,15.53
2023-04-10T21:11:57.666Z,18.80
2023-04-10T21:14:26.486Z,23.30
2023-04-10T21:16:54.358Z,17.37
2023-04-10T21:19:23.685Z,24.60
2023-04-10T21:21:51.666Z,18.40
2023-04-10T21:24:19.388Z,15.63
2023-04-10T21:26:47.002Z,17.20
2023-04-10T21:29:14.840Z,16.50
2023-04-10T21:31:42.607Z,16.47
2023-04-10T21:34:10.501Z,16.33
2023-04-10T21:36:40.319Z,15.00
2023-04-10T21:39:09.309Z,18.23
2023-04-10T21:41:37.455Z,15.63
2023-04-10T21:44:05.792Z,15.27
2023-04-10T21:46:33.493Z,15.90
2023-04-10T21:49:01.722Z,22.20
2023-04-10T21:51:29.807Z,15.07
2023-04-10T21:53:58.832Z,15.87
2023-04-10T21:56:26.632Z,16.83
2023-04-10T21:58:55.146Z,16.50
2023-04-10T22:01:23.004Z,15.23
2023-04-10T22:03:51.642Z,17.13
2023-04-10T22:06:19.826Z,15.73
2023-04-10T22:08:47.530Z,16.10
2023-04-10T22:11:17.352Z,16.57
2023-04-10T22:13:45.336Z,16.97
2023-04-10T22:16:13.066Z,16.83
2023-04-10T22:18:41.345Z,16.13
2023-04-10T22:21:09.345Z,15.07
2023-04-10T22:23:37.090Z,16.60
2023-04-10T22:26:04.765Z,16.50
2023-04-10T22:28:33.928Z,16.07
2023-04-10T22:31:02.000Z,16.03
2023-04-10T22:33:32.693Z,16.13
2023-04-10T22:36:00.862Z,15.77
2023-04-10T22:38:28.747Z,16.23
2023-04-10T22:40:56.790Z,15.60
2023-04-10T22:43:25.004Z,15.80
2023-04-10T22:45:54.163Z,16.90
2023-04-10T22:48:22.243Z,18.90
2023-04-10T22:50:50.126Z,17.43
2023-04-10T22:53:17.914Z,15.73
2023-04-10T22:55:45.693Z,17.27
2023-04-10T22:58:13.597Z,16.47
2023-04-10T23:00:41.535Z,17.63
2023-04-10T23:03:11.303Z,16.07
2023-04-10T23:05:39.510Z,16.40
2023-04-10T23:08:07.334Z,15.57
2023-04-10T23:10:35.575Z,15.90
2023-04-10T23:13:03.711Z,16.20
2023-04-10T23:15:31.685Z,19.30
2023-04-10T23:17:59.783Z,18.70
2023-04-10T23:20:29.482Z,17.87
2023-04-10T23:22:57.344Z,17.07
2023-04-10T23:25:25.640Z,17.50
2023-04-10T23:27:54.103Z,15.00
2023-04-10T23:30:22.140Z,17.27
2023-04-10T23:32:50.186Z,18.80
2023-04-10T23:35:21.172Z,16.63
2023-04-10T23:37:50.564Z,16.70
2023-04-10T23:40:18.915Z,17.53
2023-04-10T23:42:47.114Z,15.07
2023-04-10T23:45:15.040Z,16.20
2023-04-10T23:47:43.347Z,17.00
2023-04-10T23:50:12.092Z,14.40
2023-04-10T23:52:40.065Z,15.80
2023-04-10T23:55:09.656Z,17.10
2023-04-10T23:57:38.015Z,14.57
